Observation data for Haskell on 08/20/2019      Previous  Date  Next       Current Mesonet Observations  Soil Data  Daily Summary Page  Observations in Plain Language
KHA1 200500Z 14009G14KT 31/18 A2999 RMK A01 T03090175  RH  047%=      5-min Rain = 0
KHA1 200505Z 14010G15KT 31/18 A2999 RMK A01 T03080175  RH  047%=      5-min Rain = 0
KHA1 200510Z 14009KT 31/18 A2999 RMK A01 T03080175  RH  047%=      5-min Rain = 0
KHA1 200515Z 15008KT 31/18 A2999 RMK A01 T03060175  RH  048%=      5-min Rain = 0
KHA1 200520Z 15008G13KT 31/17 A2999 RMK A01 T03060174  RH  048%=      5-min Rain = 0
KHA1 200525Z 15007G12KT 31/17 A2999 RMK A01 T03050174  RH  048%=      5-min Rain = 0
KHA1 200530Z 15007KT 30/17 A2999 RMK A01 T03040174  RH  048%=      5-min Rain = 0
KHA1 200535Z 15007G12KT 30/17 A2999 RMK A01 T03030174  RH  048%=      5-min Rain = 0
KHA1 200540Z 15008G14KT 30/17 A2999 RMK A01 T03030173  RH  048%=      5-min Rain = 0
KHA1 200545Z 15008G13KT 30/17 A2999 RMK A01 T03030173  RH  048%=      5-min Rain = 0
KHA1 200550Z 16009KT 30/17 A2999 RMK A01 T03040173  RH  048%=      5-min Rain = 0
KHA1 200555Z 15009KT 30/17 A2999 RMK A01 T03040172  RH  047%=      5-min Rain = 0
KHA1 200600Z 15009KT 30/17 A2999 RMK A01 T03040172  RH  047%=      5-min Rain = 0
KHA1 200605Z 15008G14KT 30/17 A2999 RMK A01 T03030172  RH  048%=      5-min Rain = 0
KHA1 200610Z 16008G13KT 30/17 A2999 RMK A01 T03030172  RH  048%=      5-min Rain = 0
KHA1 200615Z 16009G14KT 30/17 A2999 RMK A01 T03020172  RH  048%=      5-min Rain = 0
KHA1 200620Z 16008KT 30/17 A2999 RMK A01 T03020171  RH  048%=      5-min Rain = 0
KHA1 200625Z 16008G15KT 30/17 A2999 RMK A01 T03020171  RH  048%=      5-min Rain = 0
KHA1 200630Z 16009G14KT 30/17 A2999 RMK A01 T03010171  RH  048%=      5-min Rain = 0
KHA1 200635Z 16009G15KT 30/17 A2999 RMK A01 T03010171  RH  048%=      5-min Rain = 0
KHA1 200640Z 16009G15KT 30/17 A2999 RMK A01 T03010171  RH  048%=      5-min Rain = 0
KHA1 200645Z 16009G15KT 30/17 A2999 RMK A01 T02990172  RH  049%=      5-min Rain = 0
KHA1 200650Z 16009KT 30/17 A2999 RMK A01 T02990171  RH  049%=      5-min Rain = 0
KHA1 200655Z 16007KT 30/17 A2999 RMK A01 T02980172  RH  049%=      5-min Rain = 0
KHA1 200700Z 16008KT 30/17 A2999 RMK A01 T02960172  RH  050%=      5-min Rain = 0
KHA1 200705Z 17008G13KT 30/17 A2999 RMK A01 T02950171  RH  050%=      5-min Rain = 0
KHA1 200710Z 16008KT 29/17 A2999 RMK A01 T02940172  RH  050%=      5-min Rain = 0
KHA1 200715Z 16007G12KT 29/17 A2999 RMK A01 T02940172  RH  050%=      5-min Rain = 0
KHA1 200720Z 17008G13KT 29/17 A2999 RMK A01 T02920171  RH  051%=      5-min Rain = 0
KHA1 200725Z 17007KT 29/17 A2999 RMK A01 T02920171  RH  051%=      5-min Rain = 0
KHA1 200730Z 17007KT 29/17 A2999 RMK A01 T02900171  RH  051%=      5-min Rain = 0
KHA1 200735Z 17007KT 29/17 A2999 RMK A01 T02890171  RH  052%=      5-min Rain = 0
KHA1 200740Z 16007KT 29/17 A2999 RMK A01 T02890171  RH  052%=      5-min Rain = 0
KHA1 200745Z 15005KT 29/17 A2999 RMK A01 T02870172  RH  052%=      5-min Rain = 0
KHA1 200750Z 16006KT 29/17 A2999 RMK A01 T02850172  RH  053%=      5-min Rain = 0
KHA1 200755Z 16006KT 28/17 A2999 RMK A01 T02840172  RH  053%=      5-min Rain = 0
KHA1 200800Z 15005KT 28/17 A2999 RMK A01 T02830172  RH  054%=      5-min Rain = 0
KHA1 200805Z 15004KT 28/17 A2999 RMK A01 T02810172  RH  054%=      5-min Rain = 0
KHA1 200810Z 14004KT 28/17 A2999 RMK A01 T02810172  RH  054%=      5-min Rain = 0
KHA1 200815Z 13004KT 28/17 A2999 RMK A01 T02790172  RH  055%=      5-min Rain = 0
KHA1 200820Z 13003KT 28/17 A2999 RMK A01 T02770171  RH  055%=      5-min Rain = 0
KHA1 200825Z 14003KT 28/17 A2999 RMK A01 T02750171  RH  056%=      5-min Rain = 0
KHA1 200830Z 16004KT 27/17 A2999 RMK A01 T02740171  RH  056%=      5-min Rain = 0
KHA1 200835Z 17005KT 28/17 A2999 RMK A01 T02760171  RH  055%=      5-min Rain = 0
KHA1 200840Z 17003KT 28/17 A2999 RMK A01 T02760170  RH  055%=      5-min Rain = 0
KHA1 200845Z 16003KT 27/17 A2999 RMK A01 T02740171  RH  056%=      5-min Rain = 0
KHA1 200850Z 17004KT 27/17 A2999 RMK A01 T02740170  RH  056%=      5-min Rain = 0
KHA1 200855Z 17004KT 27/17 A2999 RMK A01 T02740170  RH  056%=      5-min Rain = 0
KHA1 200900Z 16004KT 27/17 A2999 RMK A01 T02730171  RH  056%=      5-min Rain = 0
KHA1 200905Z 15004KT 27/17 A2999 RMK A01 T02730170  RH  056%=      5-min Rain = 0
KHA1 200910Z 15004KT 27/17 A2999 RMK A01 T02720170  RH  057%=      5-min Rain = 0
KHA1 200915Z 15005KT 27/17 A2999 RMK A01 T02730170  RH  056%=      5-min Rain = 0
KHA1 200920Z 16005KT 27/17 A2999 RMK A01 T02720170  RH  056%=      5-min Rain = 0
KHA1 200925Z 16006KT 27/17 A2999 RMK A01 T02730170  RH  056%=      5-min Rain = 0
KHA1 200930Z 15007KT 28/17 A2999 RMK A01 T02750170  RH  055%=      5-min Rain = 0
KHA1 200935Z 15005KT 27/17 A2999 RMK A01 T02740170  RH  056%=      5-min Rain = 0
KHA1 200940Z 15005G10KT 27/17 A2999 RMK A01 T02730170  RH  056%=      5-min Rain = 0
KHA1 200945Z 15005KT 27/17 A2999 RMK A01 T02730170  RH  056%=      5-min Rain = 0
KHA1 200950Z 15006KT 27/17 A2999 RMK A01 T02730170  RH  056%=      5-min Rain = 0
KHA1 200955Z 15005KT 27/17 A2999 RMK A01 T02720170  RH  056%=      5-min Rain = 0
KHA1 201000Z 15006KT 27/17 A2999 RMK A01 T02730169  RH  056%=      5-min Rain = 0
KHA1 201005Z 16006KT 27/17 A2999 RMK A01 T02720170  RH  056%=      5-min Rain = 0
KHA1 201010Z 16006KT 27/17 A2999 RMK A01 T02720170  RH  056%=      5-min Rain = 0
KHA1 201015Z 17005KT 27/17 A30 RMK A01 T02730169  RH  056%=      5-min Rain = 0
KHA1 201020Z 17004KT 27/17 A30 RMK A01 T02720169  RH  056%=      5-min Rain = 0
KHA1 201025Z 18004KT 27/17 A30 RMK A01 T02710168  RH  056%=      5-min Rain = 0
KHA1 201030Z 19006KT 27/17 A30 RMK A01 T02680168  RH  057%=      5-min Rain = 0
KHA1 201035Z 19004KT 27/17 A30 RMK A01 T02650168  RH  058%=      5-min Rain = 0
KHA1 201040Z 18002KT 26/17 A30 RMK A01 T02620167  RH  059%=      5-min Rain = 0
KHA1 201045Z 18004KT 26/17 A30 RMK A01 T02610167  RH  059%=      5-min Rain = 0
KHA1 201050Z 18003KT 26/17 A30 RMK A01 T02600167  RH  059%=      5-min Rain = 0
KHA1 201055Z 18003KT 26/17 A30 RMK A01 T02590167  RH  060%=      5-min Rain = 0
KHA1 201100Z 18004KT 26/17 A30 RMK A01 T02590167  RH  060%=      5-min Rain = 0
KHA1 201105Z 18004KT 26/17 A30 RMK A01 T02580167  RH  060%=      5-min Rain = 0
KHA1 201110Z 17005KT 26/17 A30 RMK A01 T02570167  RH  060%=      5-min Rain = 0
KHA1 201115Z 17004KT 26/17 A30 RMK A01 T02580168  RH  061%=      5-min Rain = 0
KHA1 201120Z 18004KT 26/17 A30 RMK A01 T02580168  RH  060%=      5-min Rain = 0
KHA1 201125Z 19005KT 26/17 A30 RMK A01 T02560167  RH  061%=      5-min Rain = 0
KHA1 201130Z 19004KT 25/17 A3001 RMK A01 T02520166  RH  062%=      5-min Rain = 0
KHA1 201135Z 20003KT 25/17 A3001 RMK A01 T02490166  RH  063%=      5-min Rain = 0
KHA1 201140Z 20004KT 25/17 A3001 RMK A01 T02460166  RH  064%=      5-min Rain = 0
KHA1 201145Z 20004KT 24/17 A3001 RMK A01 T02440167  RH  065%=      5-min Rain = 0
KHA1 201150Z 21005KT 24/17 A30 RMK A01 T02410167  RH  067%=      5-min Rain = 0
KHA1 201155Z 20005KT 24/17 A3001 RMK A01 T02400168  RH  067%=      5-min Rain = 0
KHA1 201200Z 21004KT 24/17 A3001 RMK A01 T02400167  RH  067%=      5-min Rain = 0
KHA1 201205Z 21005KT 24/17 A3001 RMK A01 T02400168  RH  067%=      5-min Rain = 0
KHA1 201210Z 20006KT 24/17 A3001 RMK A01 T02420168  RH  066%=      5-min Rain = 0
KHA1 201215Z 20006KT 25/17 A3001 RMK A01 T02460168  RH  065%=      5-min Rain = 0
KHA1 201220Z 20006KT 25/17 A3002 RMK A01 T02460168  RH  065%=      5-min Rain = 0
KHA1 201225Z 20006KT 25/17 A3002 RMK A01 T02470168  RH  065%=      5-min Rain = 0
KHA1 201230Z 19006KT 25/17 A3002 RMK A01 T02480168  RH  064%=      5-min Rain = 0
KHA1 201235Z 19006KT 25/17 A3002 RMK A01 T02520169  RH  063%=      5-min Rain = 0
KHA1 201240Z 19006KT 25/17 A3002 RMK A01 T02540170  RH  063%=      5-min Rain = 0
KHA1 201245Z 19006KT 26/17 A3002 RMK A01 T02560170  RH  062%=      5-min Rain = 0
KHA1 201250Z 18005KT 26/17 A3002 RMK A01 T02580170  RH  061%=      5-min Rain = 0
KHA1 201255Z 18005KT 26/17 A3003 RMK A01 T02600171  RH  061%=      5-min Rain = 0
KHA1 201300Z 19006KT 26/17 A3003 RMK A01 T02630172  RH  060%=      5-min Rain = 0
KHA1 201305Z 19006KT 26/17 A3003 RMK A01 T02640172  RH  060%=      5-min Rain = 0
KHA1 201310Z 19006KT 27/17 A3003 RMK A01 T02660172  RH  059%=      5-min Rain = 0
KHA1 201315Z 19006KT 27/17 A3003 RMK A01 T02680173  RH  059%=      5-min Rain = 0
KHA1 201320Z 18006KT 27/17 A3003 RMK A01 T02700173  RH  058%=      5-min Rain = 0
KHA1 201325Z 18005KT 27/17 A3003 RMK A01 T02720174  RH  058%=      5-min Rain = 0
KHA1 201330Z 19006KT 28/18 A3003 RMK A01 T02750175  RH  057%=      5-min Rain = 0
KHA1 201335Z 19007KT 28/18 A3003 RMK A01 T02760175  RH  057%=      5-min Rain = 0
KHA1 201340Z 19005KT 28/18 A3003 RMK A01 T02800176  RH  056%=      5-min Rain = 0
KHA1 201345Z 19006KT 28/18 A3004 RMK A01 T02820177  RH  055%=      5-min Rain = 0
KHA1 201350Z 19007KT 28/18 A3004 RMK A01 T02840177  RH  055%=      5-min Rain = 0
KHA1 201355Z 19008KT 28/18 A3004 RMK A01 T02840177  RH  055%=      5-min Rain = 0
KHA1 201400Z 20008KT 29/18 A3004 RMK A01 T02860178  RH  055%=      5-min Rain = 0
KHA1 201405Z 20008KT 29/18 A3004 RMK A01 T02890178  RH  054%=      5-min Rain = 0
KHA1 201410Z 20009KT 29/18 A3004 RMK A01 T02910180  RH  054%=      5-min Rain = 0
KHA1 201415Z 21009KT 29/18 A3004 RMK A01 T02940180  RH  053%=      5-min Rain = 0
KHA1 201420Z 20009KT 30/18 A3004 RMK A01 T02960181  RH  053%=      5-min Rain = 0
KHA1 201425Z 20009KT 30/18 A3004 RMK A01 T02980182  RH  052%=      5-min Rain = 0
KHA1 201430Z 21010KT 30/18 A3004 RMK A01 T03000183  RH  052%=      5-min Rain = 0
KHA1 201435Z 21010KT 30/18 A3004 RMK A01 T03020184  RH  052%=      5-min Rain = 0
KHA1 201440Z 20011KT 30/19 A3004 RMK A01 T03030185  RH  052%=      5-min Rain = 0
KHA1 201445Z 21011KT 31/19 A3004 RMK A01 T03050186  RH  052%=      5-min Rain = 0
KHA1 201450Z 22011KT 31/19 A3004 RMK A01 T03050186  RH  052%=      5-min Rain = 0
KHA1 201455Z 22010KT 31/19 A3004 RMK A01 T03060187  RH  052%=      5-min Rain = 0
KHA1 201500Z 20010KT 31/19 A3004 RMK A01 T03100188  RH  051%=      5-min Rain = 0
KHA1 201505Z 21010KT 31/19 A3004 RMK A01 T03110188  RH  051%=      5-min Rain = 0
KHA1 201510Z 22009KT 31/19 A3004 RMK A01 T03140189  RH  050%=      5-min Rain = 0
KHA1 201515Z 21009KT 32/19 A3004 RMK A01 T03180190  RH  049%=      5-min Rain = 0
KHA1 201520Z 20009KT 32/19 A3004 RMK A01 T03180189  RH  049%=      5-min Rain = 0
KHA1 201525Z 21010KT 32/19 A3004 RMK A01 T03200189  RH  048%=      5-min Rain = 0
KHA1 201530Z 22009KT 32/19 A3004 RMK A01 T03210189  RH  048%=      5-min Rain = 0
KHA1 201535Z 22009KT 32/19 A3004 RMK A01 T03200189  RH  048%=      5-min Rain = 0
KHA1 201540Z 21009KT 32/19 A3005 RMK A01 T03230189  RH  047%=      5-min Rain = 0
KHA1 201545Z 19010KT 33/19 A3005 RMK A01 T03250187  RH  047%=      5-min Rain = 0
KHA1 201550Z 19009KT 33/19 A3005 RMK A01 T03260187  RH  046%=      5-min Rain = 0
KHA1 201555Z 20007G12KT 33/19 A3005 RMK A01 T03290188  RH  046%=      5-min Rain = 0
KHA1 201600Z 19009KT 33/19 A3005 RMK A01 T03300186  RH  045%=      5-min Rain = 0
KHA1 201605Z 19010KT 33/19 A3005 RMK A01 T03310187  RH  045%=      5-min Rain = 0
KHA1 201610Z 20008G13KT 33/19 A3005 RMK A01 T03320187  RH  045%=      5-min Rain = 0
KHA1 201615Z 19009G14KT 33/19 A3005 RMK A01 T03330185  RH  044%=      5-min Rain = 0
KHA1 201620Z 18009KT 33/19 A3005 RMK A01 T03330185  RH  044%=      5-min Rain = 0
KHA1 201625Z 21009KT 34/19 A3005 RMK A01 T03360185  RH  043%=      5-min Rain = 0
KHA1 201630Z 21009G14KT 34/19 A3005 RMK A01 T03390188  RH  043%=      5-min Rain = 0
KHA1 201635Z 18007G12KT 34/19 A3005 RMK A01 T03410188  RH  043%=      5-min Rain = 0
KHA1 201640Z 21006G11KT 34/19 A3005 RMK A01 T03430188  RH  042%=      5-min Rain = 0
KHA1 201645Z 21008G14KT 34/19 A3005 RMK A01 T03420188  RH  042%=      5-min Rain = 0
KHA1 201650Z 19009G15KT 34/18 A3005 RMK A01 T03440181  RH  040%=      5-min Rain = 0
KHA1 201655Z 20008G13KT 35/18 A3005 RMK A01 T03450181  RH  040%=      5-min Rain = 0
KHA1 201700Z 20009G14KT 35/18 A3005 RMK A01 T03460183  RH  040%=      5-min Rain = 0
KHA1 201705Z 17009KT 35/18 A3005 RMK A01 T03470178  RH  039%=      5-min Rain = 0
KHA1 201710Z 18009G14KT 35/18 A3005 RMK A01 T03460179  RH  039%=      5-min Rain = 0
KHA1 201715Z 21009G15KT 35/18 A3005 RMK A01 T03480176  RH  038%=      5-min Rain = 0
KHA1 201720Z 23008KT 35/18 A3004 RMK A01 T03500182  RH  039%=      5-min Rain = 0
KHA1 201725Z 18008G14KT 35/18 A3004 RMK A01 T03520181  RH  038%=      5-min Rain = 0
KHA1 201730Z 20007KT 35/18 A3004 RMK A01 T03530183  RH  039%=      5-min Rain = 0
KHA1 201735Z 18004G10KT 36/19 A3004 RMK A01 T03570186  RH  039%=      5-min Rain = 0
KHA1 201740Z 17009KT 35/18 A3004 RMK A01 T03520183  RH  039%=      5-min Rain = 0
KHA1 201745Z 18005G11KT 35/18 A3004 RMK A01 T03530184  RH  039%=      5-min Rain = 0
KHA1 201750Z 17006G11KT 35/18 A3004 RMK A01 T03490184  RH  040%=      5-min Rain = 0
KHA1 201755Z 21006G11KT 35/18 A3004 RMK A01 T03520183  RH  039%=      5-min Rain = 0
KHA1 201800Z 19009KT 36/18 A3004 RMK A01 T03560182  RH  038%=      5-min Rain = 0
KHA1 201805Z 20007G14KT 36/18 A3004 RMK A01 T03560183  RH  038%=      5-min Rain = 0
KHA1 201810Z 20007G14KT 36/18 A3004 RMK A01 T03570183  RH  038%=      5-min Rain = 0
KHA1 201815Z 17010G15KT 36/18 A3003 RMK A01 T03610178  RH  036%=      5-min Rain = 0
KHA1 201820Z 16008KT 35/18 A3004 RMK A01 T03520184  RH  039%=      5-min Rain = 0
KHA1 201825Z 18007KT 36/18 A3003 RMK A01 T03560178  RH  037%=      5-min Rain = 0
KHA1 201830Z 18010G15KT 36/18 A3003 RMK A01 T03580176  RH  036%=      5-min Rain = 0
KHA1 201835Z 14008KT 36/18 A3003 RMK A01 T03580176  RH  036%=      5-min Rain = 0
KHA1 201840Z 13007G12KT 35/18 A3003 RMK A01 T03540179  RH  037%=      5-min Rain = 0
KHA1 201845Z 17008G13KT 36/17 A3003 RMK A01 T03590172  RH  035%=      5-min Rain = 0
KHA1 201850Z 15007G12KT 36/18 A3003 RMK A01 T03550177  RH  037%=      5-min Rain = 0
KHA1 201855Z 18006KT 36/17 A3003 RMK A01 T03570174  RH  036%=      5-min Rain = 0
KHA1 201900Z 16009KT 36/18 A3002 RMK A01 T03580176  RH  036%=      5-min Rain = 0
KHA1 201905Z 18007KT 36/17 A3002 RMK A01 T03640172  RH  034%=      5-min Rain = 0
KHA1 201910Z 18008G13KT 37/18 A3002 RMK A01 T03680175  RH  034%=      5-min Rain = 0
KHA1 201915Z 19007G12KT 37/17 A3002 RMK A01 T03670169  RH  033%=      5-min Rain = 0
KHA1 201920Z 19007KT 37/17 A3002 RMK A01 T03670169  RH  033%=      5-min Rain = 0
KHA1 201925Z 17007G13KT 37/17 A3001 RMK A01 T03680171  RH  033%=      5-min Rain = 0
KHA1 201930Z 15011G16KT 37/16 A3001 RMK A01 T03660163  RH  032%=      5-min Rain = 0
KHA1 201935Z 12008G13KT 36/16 A3001 RMK A01 T03620162  RH  032%=      5-min Rain = 0
KHA1 201940Z 15007G12KT 36/17 A3001 RMK A01 T03620170  RH  034%=      5-min Rain = 0
KHA1 201945Z 13007G12KT 36/17 A3001 RMK A01 T03600173  RH  035%=      5-min Rain = 0
KHA1 201950Z 19005G10KT 37/17 A3001 RMK A01 T03670167  RH  032%=      5-min Rain = 0
KHA1 201955Z 16008G14KT 37/17 A3001 RMK A01 T03690169  RH  033%=      5-min Rain = 0
KHA1 202000Z 15008G14KT 36/17 A3001 RMK A01 T03640173  RH  034%=      5-min Rain = 0
KHA1 202005Z 20008KT 37/17 A30 RMK A01 T03690168  RH  032%=      5-min Rain = 0
KHA1 202010Z 18007G13KT 37/17 A30 RMK A01 T03700167  RH  032%=      5-min Rain = 0
KHA1 202015Z 16008G15KT 37/17 A30 RMK A01 T03740170  RH  032%=      5-min Rain = 0
KHA1 202020Z 14008G13KT 36/17 A30 RMK A01 T03630173  RH  034%=      5-min Rain = 0
KHA1 202025Z 12007KT 36/17 A2999 RMK A01 T03640171  RH  034%=      5-min Rain = 0
KHA1 202030Z 17007G12KT 37/17 A2999 RMK A01 T03690167  RH  032%=      5-min Rain = 0
KHA1 202035Z 16007G12KT 37/17 A2999 RMK A01 T03690168  RH  032%=      5-min Rain = 0
KHA1 202040Z 18007G14KT 37/17 A2999 RMK A01 T03690165  RH  031%=      5-min Rain = 0
KHA1 202045Z 18010G15KT 37/17 A2998 RMK A01 T03730167  RH  031%=      5-min Rain = 0
KHA1 202050Z 17009KT 38/17 A2998 RMK A01 T03750168  RH  031%=      5-min Rain = 0
KHA1 202055Z 17007G13KT 37/17 A2998 RMK A01 T03730168  RH  031%=      5-min Rain = 0
KHA1 202100Z 17007G13KT 38/17 A2998 RMK A01 T03760172  RH  032%=      5-min Rain = 0
KHA1 202105Z 18006KT 38/17 A2998 RMK A01 T03800168  RH  030%=      5-min Rain = 0
KHA1 202110Z 17010G16KT 38/17 A2997 RMK A01 T03760166  RH  031%=      5-min Rain = 0
KHA1 202115Z 14008KT 37/17 A2997 RMK A01 T03710167  RH  032%=      5-min Rain = 0
KHA1 202120Z 14006KT 37/17 A2997 RMK A01 T03690169  RH  032%=      5-min Rain = 0
KHA1 202125Z 19009G18KT 37/16 A2997 RMK A01 T03730164  RH  031%=      5-min Rain = 0
KHA1 202130Z 15011KT 37/16 A2997 RMK A01 T03710164  RH  031%=      5-min Rain = 0
KHA1 202135Z 12008KT 37/17 A2997 RMK A01 T03670169  RH  033%=      5-min Rain = 0
KHA1 202140Z 13007KT 37/17 A2997 RMK A01 T03690169  RH  033%=      5-min Rain = 0
KHA1 202145Z 12007KT 37/17 A2997 RMK A01 T03700172  RH  033%=      5-min Rain = 0
KHA1 202150Z 13007KT 37/17 A2996 RMK A01 T03670172  RH  033%=      5-min Rain = 0
KHA1 202155Z 13008G13KT 37/17 A2996 RMK A01 T03680170  RH  033%=      5-min Rain = 0
KHA1 202200Z 13009KT 37/17 A2996 RMK A01 T03670169  RH  033%=      5-min Rain = 0
KHA1 202205Z 14009KT 37/17 A2996 RMK A01 T03670169  RH  033%=      5-min Rain = 0
KHA1 202210Z 14007KT 36/17 A2996 RMK A01 T03640169  RH  033%=      5-min Rain = 0
KHA1 202215Z 14007G12KT 37/17 A2996 RMK A01 T03670166  RH  032%=      5-min Rain = 0
KHA1 202220Z 15008G13KT 37/17 A2996 RMK A01 T03700168  RH  032%=      5-min Rain = 0
KHA1 202225Z 14008G13KT 37/17 A2996 RMK A01 T03680169  RH  033%=      5-min Rain = 0
KHA1 202230Z 15007G12KT 37/17 A2996 RMK A01 T03700168  RH  032%=      5-min Rain = 0
KHA1 202235Z 14008KT 37/17 A2995 RMK A01 T03710166  RH  031%=      5-min Rain = 0
KHA1 202240Z 15009G14KT 37/16 A2995 RMK A01 T03680160  RH  031%=      5-min Rain = 0
KHA1 202245Z 16007G14KT 37/16 A2995 RMK A01 T03700157  RH  030%=      5-min Rain = 0
KHA1 202250Z 15004KT 37/16 A2995 RMK A01 T03740161  RH  030%=      5-min Rain = 0
KHA1 202255Z 15008KT 37/16 A2995 RMK A01 T03740162  RH  030%=      5-min Rain = 0
KHA1 202300Z 14007G14KT 37/16 A2995 RMK A01 T03700160  RH  030%=      5-min Rain = 0
KHA1 202305Z 13007G13KT 37/16 A2995 RMK A01 T03690156  RH  030%=      5-min Rain = 0
KHA1 202310Z 11010KT 37/15 A2995 RMK A01 T03690152  RH  029%=      5-min Rain = 0
KHA1 202315Z 12009KT 37/15 A2995 RMK A01 T03680150  RH  029%=      5-min Rain = 0
KHA1 202320Z 12008G14KT 37/15 A2995 RMK A01 T03670151  RH  029%=      5-min Rain = 0
KHA1 202325Z 13007G12KT 37/15 A2995 RMK A01 T03660149  RH  029%=      5-min Rain = 0
KHA1 202330Z 12008KT 37/15 A2995 RMK A01 T03670148  RH  028%=      5-min Rain = 0
KHA1 202335Z 13007KT 37/15 A2995 RMK A01 T03660150  RH  029%=      5-min Rain = 0
KHA1 202340Z 13009KT 37/16 A2995 RMK A01 T03650155  RH  030%=      5-min Rain = 0
KHA1 202345Z 14007G13KT 36/16 A2995 RMK A01 T03630157  RH  031%=      5-min Rain = 0
KHA1 202350Z 13009KT 36/15 A2995 RMK A01 T03620152  RH  030%=      5-min Rain = 0
KHA1 202355Z 15008G13KT 36/16 A2995 RMK A01 T03640155  RH  030%=      5-min Rain = 0
KHA1 210000Z 12009G14KT 36/16 A2995 RMK A01 T03620155  RH  031%=      5-min Rain = 0
KHA1 210005Z 14007KT 36/15 A2995 RMK A01 T03610154  RH  031%=      5-min Rain = 0
KHA1 210010Z 13007KT 36/15 A2995 RMK A01 T03590152  RH  031%=      5-min Rain = 0
KHA1 210015Z 14007KT 36/15 A2995 RMK A01 T03600152  RH  030%=      5-min Rain = 0
KHA1 210020Z 13008KT 36/15 A2995 RMK A01 T03580153  RH  031%=      5-min Rain = 0
KHA1 210025Z 13010KT 36/16 A2995 RMK A01 T03570158  RH  032%=      5-min Rain = 0
KHA1 210030Z 13009KT 35/16 A2995 RMK A01 T03540161  RH  033%=      5-min Rain = 0
KHA1 210035Z 13008KT 35/16 A2995 RMK A01 T03530161  RH  034%=      5-min Rain = 0
KHA1 210040Z 13009KT 35/16 A2995 RMK A01 T03520162  RH  034%=      5-min Rain = 0
KHA1 210045Z 14008KT 35/16 A2995 RMK A01 T03510163  RH  034%=      5-min Rain = 0
KHA1 210050Z 13008G13KT 35/16 A2995 RMK A01 T03490163  RH  035%=      5-min Rain = 0
KHA1 210055Z 13009KT 35/16 A2995 RMK A01 T03480163  RH  035%=      5-min Rain = 0
KHA1 210100Z 13008KT 35/16 A2996 RMK A01 T03480161  RH  035%=      5-min Rain = 0
KHA1 210105Z 14008KT 35/16 A2996 RMK A01 T03470161  RH  035%=      5-min Rain = 0
KHA1 210110Z 13007KT 35/16 A2996 RMK A01 T03450162  RH  035%=      5-min Rain = 0
KHA1 210115Z 13006KT 34/16 A2996 RMK A01 T03420163  RH  036%=      5-min Rain = 0
KHA1 210120Z 13007KT 34/16 A2996 RMK A01 T03390163  RH  037%=      5-min Rain = 0
KHA1 210125Z 13006KT 34/16 A2996 RMK A01 T03370164  RH  037%=      5-min Rain = 0
KHA1 210130Z 13006KT 34/16 A2996 RMK A01 T03350163  RH  037%=      5-min Rain = 0
KHA1 210135Z 14005KT 33/16 A2996 RMK A01 T03330162  RH  038%=      5-min Rain = 0
KHA1 210140Z 14005KT 33/16 A2996 RMK A01 T03310163  RH  039%=      5-min Rain = 0
KHA1 210145Z 14005KT 33/16 A2996 RMK A01 T03290162  RH  038%=      5-min Rain = 0
KHA1 210150Z 14004KT 33/16 A2997 RMK A01 T03280163  RH  039%=      5-min Rain = 0
KHA1 210155Z 14005KT 33/16 A2997 RMK A01 T03260163  RH  039%=      5-min Rain = 0
KHA1 210200Z 13005KT 33/16 A2997 RMK A01 T03250162  RH  040%=      5-min Rain = 0
KHA1 210205Z 14005KT 32/16 A2997 RMK A01 T03240162  RH  040%=      5-min Rain = 0
KHA1 210210Z 13004KT 32/16 A2997 RMK A01 T03220163  RH  040%=      5-min Rain = 0
KHA1 210215Z 14005KT 32/16 A2997 RMK A01 T03220162  RH  040%=      5-min Rain = 0
KHA1 210220Z 13005KT 32/16 A2997 RMK A01 T03200163  RH  041%=      5-min Rain = 0
KHA1 210225Z 13004KT 32/16 A2998 RMK A01 T03170163  RH  042%=      5-min Rain = 0
KHA1 210230Z 13004KT 32/16 A2998 RMK A01 T03150163  RH  042%=      5-min Rain = 0
KHA1 210235Z 13005KT 32/16 A2998 RMK A01 T03150164  RH  042%=      5-min Rain = 0
KHA1 210240Z 13005KT 32/16 A2998 RMK A01 T03160163  RH  042%=      5-min Rain = 0
KHA1 210245Z 14005KT 32/16 A2998 RMK A01 T03150164  RH  042%=      5-min Rain = 0
KHA1 210250Z 13005KT 31/16 A2999 RMK A01 T03130164  RH  043%=      5-min Rain = 0
KHA1 210255Z 14005KT 31/16 A2999 RMK A01 T03130164  RH  043%=      5-min Rain = 0
KHA1 210300Z 14005KT 31/17 A2999 RMK A01 T03130165  RH  043%=      5-min Rain = 0
KHA1 210305Z 13006KT 31/17 A2999 RMK A01 T03120165  RH  043%=      5-min Rain = 0
KHA1 210310Z 13005KT 31/17 A2999 RMK A01 T03120165  RH  043%=      5-min Rain = 0
KHA1 210315Z 13006KT 31/16 A2999 RMK A01 T03100164  RH  043%=      5-min Rain = 0
KHA1 210320Z 13006KT 31/16 A30 RMK A01 T03100163  RH  043%=      5-min Rain = 0
KHA1 210325Z 13006KT 31/16 A30 RMK A01 T03100163  RH  043%=      5-min Rain = 0
KHA1 210330Z 13006KT 31/16 A30 RMK A01 T03090163  RH  043%=      5-min Rain = 0
KHA1 210335Z 13006KT 31/16 A30 RMK A01 T03080163  RH  044%=      5-min Rain = 0
KHA1 210340Z 14006KT 31/16 A30 RMK A01 T03090162  RH  043%=      5-min Rain = 0
KHA1 210345Z 14006KT 31/16 A30 RMK A01 T03080163  RH  044%=      5-min Rain = 0
KHA1 210350Z 14006KT 31/16 A30 RMK A01 T03060163  RH  044%=      5-min Rain = 0
KHA1 210355Z 14006KT 31/16 A30 RMK A01 T03050163  RH  044%=      5-min Rain = 0
KHA1 210400Z 14005KT 31/16 A30 RMK A01 T03050162  RH  044%=      5-min Rain = 0
KHA1 210405Z 14006KT 31/16 A30 RMK A01 T03050162  RH  044%=      5-min Rain = 0
KHA1 210410Z 14005KT 31/16 A30 RMK A01 T03050161  RH  044%=      5-min Rain = 0
KHA1 210415Z 14006KT 30/16 A30 RMK A01 T03040160  RH  044%=      5-min Rain = 0
KHA1 210420Z 13006KT 30/16 A30 RMK A01 T03040159  RH  044%=      5-min Rain = 0
KHA1 210425Z 13006KT 30/16 A30 RMK A01 T03020160  RH  044%=      5-min Rain = 0
KHA1 210430Z 14006KT 30/16 A3001 RMK A01 T03010158  RH  044%=      5-min Rain = 0
KHA1 210435Z 14006KT 30/16 A30 RMK A01 T03010158  RH  044%=      5-min Rain = 0
KHA1 210440Z 14007KT 30/16 A30 RMK A01 T03010158  RH  044%=      5-min Rain = 0
KHA1 210445Z 14007KT 30/16 A30 RMK A01 T03010158  RH  044%=      5-min Rain = 0
KHA1 210450Z 14006KT 30/16 A30 RMK A01 T03000159  RH  045%=      5-min Rain = 0
KHA1 210455Z 14006KT 30/16 A3001 RMK A01 T02980159  RH  045%=      5-min Rain = 0

Page generated in 0.0095 seconds.